createdAt,value
2018-12-09T00:04:05.631Z,8.20
2018-12-09T00:09:08.877Z,4.60
2018-12-09T00:14:12.089Z,5.27
2018-12-09T00:19:15.363Z,5.17
2018-12-09T00:24:18.577Z,6.90
2018-12-09T00:29:21.840Z,6.33
2018-12-09T00:34:25.140Z,8.03
2018-12-09T00:39:28.397Z,5.90
2018-12-09T00:44:31.579Z,7.40
2018-12-09T00:49:34.782Z,6.40
2018-12-09T00:54:37.997Z,4.73
2018-12-09T00:59:41.248Z,5.17
2018-12-09T01:04:44.437Z,4.20
2018-12-09T01:09:47.731Z,5.63
2018-12-09T01:14:51.015Z,7.40
2018-12-09T01:19:54.299Z,5.37
2018-12-09T01:24:57.475Z,7.30
2018-12-09T01:30:00.807Z,4.17
2018-12-09T01:35:04.079Z,5.70
2018-12-09T01:40:07.474Z,5.30
2018-12-09T01:45:11.132Z,5.13
2018-12-09T01:50:15.014Z,4.90
2018-12-09T01:55:18.316Z,5.27
2018-12-09T02:00:21.659Z,4.07
2018-12-09T02:05:24.828Z,3.43
2018-12-09T02:10:28.047Z,3.37
2018-12-09T02:15:31.260Z,4.27
2018-12-09T02:20:34.465Z,4.40
2018-12-09T02:25:37.851Z,5.50
2018-12-09T02:30:41.103Z,3.87
2018-12-09T02:35:46.151Z,5.03
2018-12-09T02:40:49.385Z,4.80
2018-12-09T02:45:52.908Z,4.43
2018-12-09T02:50:56.236Z,3.33
2018-12-09T02:55:59.412Z,4.17
2018-12-09T03:01:02.631Z,5.40
2018-12-09T03:06:05.909Z,5.07
2018-12-09T03:11:09.185Z,4.17
2018-12-09T03:16:12.397Z,3.30
2018-12-09T03:21:15.617Z,3.03
2018-12-09T03:26:19.750Z,4.20
2018-12-09T03:31:22.965Z,3.30
2018-12-09T03:36:26.623Z,3.30
2018-12-09T03:41:29.978Z,2.97
2018-12-09T03:46:33.326Z,4.80
2018-12-09T03:51:37.031Z,5.07
2018-12-09T03:56:40.220Z,2.27
2018-12-09T04:01:43.815Z,3.20
2018-12-09T04:06:47.040Z,3.53
2018-12-09T04:11:50.478Z,3.10
2018-12-09T04:16:53.794Z,3.30
2018-12-09T04:21:57.060Z,2.80
2018-12-09T04:27:00.272Z,2.80
2018-12-09T04:32:03.624Z,3.50
2018-12-09T04:37:06.881Z,2.30
2018-12-09T04:42:10.139Z,2.83
2018-12-09T04:47:13.342Z,3.80
2018-12-09T04:52:16.592Z,2.40
2018-12-09T04:57:19.791Z,5.60
2018-12-09T05:02:23.007Z,3.13
2018-12-09T05:07:26.208Z,2.13
2018-12-09T05:12:29.391Z,3.70
2018-12-09T05:17:32.790Z,2.50
2018-12-09T05:22:36.011Z,3.40
2018-12-09T05:27:39.205Z,2.87
2018-12-09T05:32:42.761Z,3.00
2018-12-09T05:37:46.005Z,2.20
2018-12-09T05:42:49.336Z,1.80
2018-12-09T05:47:52.527Z,2.80
2018-12-09T05:52:56.046Z,2.80
2018-12-09T05:57:59.227Z,2.40
2018-12-09T06:03:02.405Z,2.23
2018-12-09T06:08:05.627Z,2.10
2018-12-09T06:13:09.058Z,3.60
2018-12-09T06:18:12.305Z,1.93
2018-12-09T06:23:15.523Z,2.33
2018-12-09T06:28:18.743Z,2.20
2018-12-09T06:33:21.945Z,2.30
2018-12-09T06:38:25.579Z,3.33
2018-12-09T06:43:29.021Z,3.07
2018-12-09T06:48:32.789Z,2.50
2018-12-09T06:53:35.993Z,2.40
2018-12-09T06:58:39.777Z,1.80
2018-12-09T07:03:42.991Z,2.13
2018-12-09T07:08:46.737Z,2.33
2018-12-09T07:13:49.976Z,1.63
2018-12-09T07:18:53.210Z,2.23
2018-12-09T07:23:56.398Z,2.40
2018-12-09T07:29:00.350Z,2.83
2018-12-09T07:34:03.599Z,2.30
2018-12-09T07:39:07.582Z,2.17
2018-12-09T07:44:10.808Z,1.93
2018-12-09T07:49:14.372Z,3.10
2018-12-09T07:54:17.790Z,2.20
2018-12-09T07:59:20.949Z,2.20
2018-12-09T08:04:24.220Z,2.53
2018-12-09T08:09:28.089Z,2.00
2018-12-09T08:14:31.269Z,1.70
2018-12-09T08:19:35.640Z,3.50
2018-12-09T08:24:38.897Z,2.17
2018-12-09T08:29:44.304Z,2.10
2018-12-09T08:34:47.663Z,1.83
2018-12-09T08:39:51.221Z,1.97
2018-12-09T08:45:00.108Z,1.73
2018-12-09T08:50:03.925Z,2.00
2018-12-09T08:55:07.393Z,2.40
2018-12-09T09:00:10.604Z,2.13
2018-12-09T09:05:13.877Z,3.50
2018-12-09T09:10:17.160Z,2.20
2018-12-09T09:15:20.430Z,2.27
2018-12-09T09:20:23.733Z,1.30
2018-12-09T09:25:26.999Z,1.87
2018-12-09T09:30:30.820Z,1.80
2018-12-09T09:35:34.019Z,1.77
2018-12-09T09:40:37.258Z,2.27
2018-12-09T09:45:40.790Z,1.43
2018-12-09T09:50:44.088Z,1.40
2018-12-09T09:55:47.496Z,2.30
2018-12-09T10:00:50.792Z,1.33
2018-12-09T10:05:54.028Z,1.77
2018-12-09T10:10:57.264Z,2.00
2018-12-09T10:16:00.934Z,1.33
2018-12-09T10:21:04.181Z,1.43
2018-12-09T10:26:08.421Z,1.70
2018-12-09T10:31:11.733Z,1.30
2018-12-09T10:36:15.044Z,1.80
2018-12-09T10:41:18.350Z,2.40
2018-12-09T10:46:21.957Z,1.30
2018-12-09T10:51:26.008Z,1.67
2018-12-09T10:56:29.576Z,1.60
2018-12-09T11:01:39.357Z,1.70
2018-12-09T11:06:43.855Z,2.40
2018-12-09T11:11:47.051Z,1.40
2018-12-09T11:16:50.268Z,1.00
2018-12-09T11:21:53.507Z,1.83
2018-12-09T11:26:56.789Z,1.70
2018-12-09T11:32:00.115Z,2.07
2018-12-09T11:37:03.417Z,2.00
2018-12-09T11:42:07.027Z,1.53
2018-12-09T11:47:10.446Z,1.30
2018-12-09T11:52:13.896Z,1.57
2018-12-09T11:57:17.317Z,2.17
2018-12-09T12:02:20.925Z,1.33
2018-12-09T12:07:24.190Z,1.03
2018-12-09T12:12:27.478Z,3.40
2018-12-09T12:17:30.748Z,5.00
2018-12-09T12:22:33.922Z,4.10
2018-12-09T12:27:37.140Z,7.20
2018-12-09T12:32:40.605Z,8.80
2018-12-09T12:37:43.872Z,4.80
2018-12-09T12:42:47.814Z,11.53
2018-12-09T12:47:51.095Z,6.60
2018-12-09T12:52:54.390Z,5.67
2018-12-09T12:57:57.589Z,4.50
2018-12-09T13:03:00.792Z,9.73
2018-12-09T13:08:04.050Z,8.83
2018-12-09T13:13:07.607Z,8.90
2018-12-09T13:18:10.782Z,8.03
2018-12-09T13:23:14.035Z,6.80
2018-12-09T13:28:17.261Z,6.50
2018-12-09T13:33:20.983Z,7.23
2018-12-09T13:38:24.242Z,10.97
2018-12-09T13:43:27.617Z,12.40
2018-12-09T13:48:30.836Z,6.63
2018-12-09T13:53:34.305Z,8.73
2018-12-09T13:58:37.715Z,7.90
2018-12-09T14:03:45.495Z,10.00
2018-12-09T14:08:48.853Z,8.53
2018-12-09T14:13:52.105Z,4.73
2018-12-09T14:18:56.111Z,5.10
2018-12-09T14:23:59.711Z,5.80
2018-12-09T14:29:02.992Z,8.90
2018-12-09T14:34:06.399Z,8.67
2018-12-09T14:39:09.703Z,6.97
2018-12-09T14:44:12.899Z,8.97
2018-12-09T14:49:16.127Z,9.80
2018-12-09T14:54:19.757Z,10.90
2018-12-09T14:59:22.955Z,10.80
2018-12-09T15:04:26.164Z,13.90
2018-12-09T15:09:29.387Z,8.83
2018-12-09T15:14:32.596Z,7.27
2018-12-09T15:19:35.884Z,8.10
2018-12-09T15:24:41.536Z,9.60
2018-12-09T15:29:44.442Z,12.40
2018-12-09T15:34:47.902Z,6.80
2018-12-09T15:39:51.116Z,9.57
2018-12-09T15:44:54.945Z,10.30
2018-12-09T15:49:58.191Z,9.17
2018-12-09T15:55:01.578Z,6.37
2018-12-09T16:00:05.240Z,7.40
2018-12-09T16:05:08.603Z,6.70
2018-12-09T16:10:12.143Z,9.93
2018-12-09T16:15:15.944Z,6.37
2018-12-09T16:20:19.595Z,11.03
2018-12-09T16:25:23.112Z,12.53
2018-12-09T16:30:26.884Z,8.53
2018-12-09T16:35:30.253Z,6.33
2018-12-09T16:40:33.486Z,11.33
2018-12-09T16:45:36.808Z,6.57
2018-12-09T16:50:40.230Z,9.43
2018-12-09T16:55:43.556Z,6.73
2018-12-09T17:00:46.814Z,5.50
2018-12-09T17:05:50.363Z,8.33
2018-12-09T17:10:53.747Z,5.70
2018-12-09T17:15:57.052Z,7.17
2018-12-09T17:21:00.562Z,5.50
2018-12-09T17:26:03.959Z,7.10
2018-12-09T17:31:07.202Z,7.40
2018-12-09T17:36:10.557Z,7.20
2018-12-09T17:41:13.820Z,7.10
2018-12-09T17:46:17.124Z,10.60
2018-12-09T17:51:20.771Z,8.50
2018-12-09T17:56:24.297Z,18.17
2018-12-09T18:01:27.537Z,23.00
2018-12-09T18:06:30.765Z,49.97
2018-12-09T18:11:33.988Z,57.57
2018-12-09T18:16:37.959Z,60.20
2018-12-09T18:21:41.198Z,49.60
2018-12-09T18:26:44.555Z,52.60
2018-12-09T18:31:47.815Z,43.67
2018-12-09T18:36:51.147Z,62.07
2018-12-09T18:41:54.566Z,33.53
2018-12-09T18:46:57.861Z,39.70
2018-12-09T18:52:01.201Z,25.33
2018-12-09T18:57:04.714Z,29.77
2018-12-09T19:02:08.332Z,35.93
2018-12-09T19:07:11.726Z,25.50
2018-12-09T19:12:15.028Z,23.07
2018-12-09T19:17:18.674Z,23.90
2018-12-09T19:22:22.121Z,22.03
2018-12-09T19:27:25.770Z,19.80
2018-12-09T19:32:29.328Z,20.57
2018-12-09T19:37:32.890Z,24.23
2018-12-09T19:42:36.595Z,21.73
2018-12-09T19:47:39.942Z,20.00
2018-12-09T19:52:43.601Z,12.97
2018-12-09T19:57:47.183Z,14.87
2018-12-09T20:02:50.652Z,15.60
2018-12-09T20:07:55.180Z,14.80
2018-12-09T20:12:58.585Z,15.93
2018-12-09T20:18:02.925Z,14.43
2018-12-09T20:23:06.630Z,15.07
2018-12-09T20:28:09.930Z,12.63
2018-12-09T20:33:13.582Z,13.67
2018-12-09T20:38:16.888Z,13.33
2018-12-09T20:43:21.223Z,13.40
2018-12-09T20:48:25.904Z,10.80
2018-12-09T20:53:29.390Z,10.07
2018-12-09T20:58:32.734Z,10.83
2018-12-09T21:03:36.751Z,10.67
2018-12-09T21:08:40.660Z,13.10
2018-12-09T21:13:44.001Z,10.77
2018-12-09T21:18:48.086Z,12.50
2018-12-09T21:23:52.461Z,8.77
2018-12-09T21:28:56.056Z,10.53
2018-12-09T21:33:59.991Z,11.10
2018-12-09T21:39:04.609Z,8.87
2018-12-09T21:44:07.905Z,10.80
2018-12-09T21:49:11.556Z,12.80
2018-12-09T21:54:15.697Z,9.80
2018-12-09T21:59:19.069Z,8.80
2018-12-09T22:04:23.652Z,17.73
2018-12-09T22:09:27.238Z,13.50
2018-12-09T22:14:30.824Z,14.43
2018-12-09T22:19:38.445Z,11.43
2018-12-09T22:24:41.691Z,11.20
2018-12-09T22:29:44.892Z,10.87
2018-12-09T22:34:48.092Z,9.67
2018-12-09T22:39:51.318Z,7.70
2018-12-09T22:44:55.272Z,6.83
2018-12-09T22:49:58.555Z,8.37
2018-12-09T22:55:01.811Z,17.47
2018-12-09T23:00:08.877Z,10.10
2018-12-09T23:05:12.160Z,11.23
2018-12-09T23:10:16.736Z,7.73
2018-12-09T23:15:20.264Z,9.50
2018-12-09T23:20:23.605Z,7.93
2018-12-09T23:25:26.853Z,10.03
2018-12-09T23:30:30.169Z,7.60
2018-12-09T23:35:33.418Z,9.10
2018-12-09T23:40:36.704Z,11.10
2018-12-09T23:45:39.934Z,13.00
2018-12-09T23:50:43.202Z,10.07
2018-12-09T23:55:46.435Z,12.27
